Blean, United Kingdom
Current Conditions -  °F | °C
As of 2:50 AM on Thursday 27 Nov 2014 (Local Time) from EGMC Reporting Station
Haze Haze  
Wind Chill: 50°   Ceiling: 1100
Heat Index: 50°   Visibility: 1.8mi
Dew Point: 48°   Wind: 5mph
Humidity: 94%   Direction: 130°SE
Pressure: 29.68"   Gusts: NA
Location:  51.31°N, 1.04°E
Report Text: EGMC 270250Z 13004KT 3000 BR FEW003 BKN011 OVC043 10/09 Q1005
Loading
Personal Weather Stations






























Interactive Weather Map New forecast layout! Learn more

10-Day Weather Forecast

Advertisements
Track Severe Weather on mobile